Time;durP1;ratioP1;P1;durP2;ratioP2;P2;SDS_P1;SDS_P2;PMS_P1;PMS_P2;Temp;Humidity;BMP_temperature;BMP_pressure;BME280_temperature;BME280_humidity;BME280_pressure;Samples;Min_cycle;Max_cycle;Signal;HPM_P1;HPM_P2
2023/05/20 00:01:06;;;;;;;7.77;6.60;;;16.50;99.90;;;;;;6301555;28;20465;-66
2023/05/20 00:04:09;;;;;;;7.40;6.83;;;16.50;99.90;;;;;;6301661;28;20531;-66
2023/05/20 00:07:14;;;;;;;7.30;6.30;;;16.40;99.90;;;;;;6305087;28;20474;-65
2023/05/20 00:10:17;;;;;;;7.67;6.93;;;16.50;99.90;;;;;;6288723;28;20477;-69
2023/05/20 00:13:20;;;;;;;5.93;5.47;;;16.50;99.90;;;;;;6300124;28;20483;-66
2023/05/20 00:16:24;;;;;;;7.93;7.20;;;16.50;99.90;;;;;;6300145;28;20476;-66
2023/05/20 00:19:28;;;;;;;7.03;6.53;;;16.50;99.90;;;;;;6300267;28;20909;-66
2023/05/20 00:22:32;;;;;;;7.47;6.87;;;16.50;99.90;;;;;;6299459;28;20980;-66
2023/05/20 00:25:35;;;;;;;7.23;6.57;;;16.40;99.90;;;;;;6300908;28;20476;-66
2023/05/20 00:28:39;;;;;;;7.93;7.30;;;16.40;99.90;;;;;;6299943;28;20464;-66
2023/05/20 00:31:42;;;;;;;8.03;6.97;;;16.40;99.90;;;;;;6300431;28;20465;-66
2023/05/20 00:34:55;;;;;;;9.57;6.50;;;16.40;99.90;;;;;;6300442;28;20960;-66
2023/05/20 00:37:59;;;;;;;7.20;6.67;;;16.40;99.90;;;;;;6298104;28;20540;-66
2023/05/20 00:41:03;;;;;;;7.43;6.73;;;16.50;99.90;;;;;;6300233;28;20493;-64
2023/05/20 00:44:06;;;;;;;7.17;6.53;;;16.50;99.90;;;;;;6299611;28;20544;-66
2023/05/20 00:47:09;;;;;;;7.20;6.50;;;16.50;99.90;;;;;;6300147;28;21071;-66
2023/05/20 00:50:12;;;;;;;6.63;6.00;;;16.40;99.90;;;;;;6299991;28;20472;-67
2023/05/20 00:53:18;;;;;;;7.27;6.57;;;16.30;99.90;;;;;;6299346;28;20623;-67
2023/05/20 00:56:21;;;;;;;7.47;6.77;;;16.40;99.90;;;;;;6300314;28;20742;-67
2023/05/20 00:59:25;;;;;;;6.90;6.33;;;16.30;99.90;;;;;;6300192;28;20483;-67
2023/05/20 01:02:29;;;;;;;7.87;6.97;;;16.30;99.90;;;;;;6300147;28;20464;-66
2023/05/20 01:05:33;;;;;;;7.80;7.00;;;16.30;99.90;;;;;;6300496;28;20441;-66
2023/05/20 01:08:38;;;;;;;7.57;6.87;;;16.20;99.90;;;;;;6300112;28;20456;-68
2023/05/20 01:11:48;;;;;;;7.50;6.73;;;16.20;99.90;;;;;;6299646;28;20579;-67
2023/05/20 01:14:57;;;;;;;7.43;6.83;;;16.20;99.90;;;;;;6300088;28;20453;-66
2023/05/20 01:18:04;;;;;;;7.73;7.03;;;16.20;99.90;;;;;;6300066;28;20990;-66
2023/05/20 01:21:10;;;;;;;8.70;8.00;;;16.10;99.90;;;;;;6299770;28;20473;-66
2023/05/20 01:24:15;;;;;;;7.27;6.67;;;16.20;99.90;;;;;;6299751;28;20473;-66
2023/05/20 01:27:19;;;;;;;7.83;7.17;;;16.10;99.90;;;;;;6299940;28;20483;-66
2023/05/20 01:30:23;;;;;;;15.43;6.60;;;16.10;99.90;;;;;;6299315;28;20469;-66
2023/05/20 01:33:29;;;;;;;7.90;7.10;;;16.10;99.90;;;;;;6299702;28;20468;-66
2023/05/20 01:36:33;;;;;;;6.90;6.40;;;16.10;99.90;;;;;;6298969;28;20465;-66
2023/05/20 01:39:43;;;;;;;7.60;6.87;;;16.10;99.90;;;;;;6299009;28;20951;-66
2023/05/20 01:42:51;;;;;;;8.13;7.43;;;16.10;99.90;;;;;;6299531;28;20524;-66
2023/05/20 01:45:55;;;;;;;8.20;7.33;;;16.10;99.90;;;;;;6299677;28;20802;-66
2023/05/20 01:48:58;;;;;;;7.23;6.63;;;16.00;99.90;;;;;;6299089;28;20775;-67
2023/05/20 01:52:02;;;;;;;7.30;6.70;;;15.90;99.90;;;;;;6299710;28;20485;-66
2023/05/20 01:55:07;;;;;;;6.40;5.80;;;15.90;99.90;;;;;;6299607;28;20487;-66
2023/05/20 01:58:10;;;;;;;7.57;6.87;;;15.90;99.90;;;;;;6299668;28;20473;-66
2023/05/20 02:01:13;;;;;;;8.13;7.53;;;15.90;99.90;;;;;;6299345;28;20483;-67
2023/05/20 02:04:17;;;;;;;6.83;6.23;;;15.90;99.90;;;;;;6299662;28;20465;-67
2023/05/20 02:07:21;;;;;;;7.30;6.70;;;15.90;99.90;;;;;;6299430;28;20465;-67
2023/05/20 02:10:25;;;;;;;7.60;6.80;;;15.90;99.90;;;;;;6298569;28;20508;-67
2023/05/20 02:13:28;;;;;;;7.90;7.30;;;15.90;99.90;;;;;;6299098;28;20480;-67
2023/05/20 02:16:32;;;;;;;7.20;6.70;;;15.90;99.90;;;;;;6299198;28;20496;-67
2023/05/20 02:19:35;;;;;;;7.20;6.60;;;15.90;99.90;;;;;;6299251;28;20471;-67
2023/05/20 02:22:38;;;;;;;7.93;7.10;;;15.90;99.90;;;;;;6298416;28;20543;-67
2023/05/20 02:25:44;;;;;;;7.40;6.77;;;16.00;99.90;;;;;;6305612;28;20453;-67
2023/05/20 02:28:49;;;;;;;7.77;7.07;;;16.00;99.90;;;;;;6325585;28;20460;-66
2023/05/20 02:31:53;;;;;;;7.30;6.60;;;16.00;99.90;;;;;;6303270;28;20800;-67
2023/05/20 02:34:56;;;;;;;7.43;6.83;;;16.00;99.90;;;;;;6299276;28;20481;-66
2023/05/20 02:37:59;;;;;;;8.27;7.47;;;15.80;99.90;;;;;;6298813;28;20483;-66
2023/05/20 02:41:04;;;;;;;8.37;7.57;;;15.80;99.90;;;;;;6298885;28;20488;-66
2023/05/20 02:44:07;;;;;;;8.80;8.00;;;15.70;99.90;;;;;;6300746;28;20487;-66
2023/05/20 02:47:10;;;;;;;9.43;8.20;;;15.70;99.90;;;;;;6303579;28;20553;-66
2023/05/20 02:50:14;;;;;;;8.60;7.90;;;15.70;99.90;;;;;;6303133;28;20477;-66
2023/05/20 02:53:17;;;;;;;7.43;6.73;;;15.70;99.90;;;;;;6303131;28;20560;-66
2023/05/20 02:56:21;;;;;;;8.50;7.70;;;15.70;99.90;;;;;;6302781;28;20956;-66
2023/05/20 02:59:24;;;;;;;9.07;8.17;;;15.80;99.90;;;;;;6303132;28;20469;-66
2023/05/20 03:02:28;;;;;;;9.33;8.50;;;15.80;99.90;;;;;;6302943;28;20457;-66
2023/05/20 03:05:31;;;;;;;8.50;7.80;;;15.90;99.90;;;;;;6303397;28;20444;-66
2023/05/20 03:08:35;;;;;;;9.43;8.03;;;15.70;99.90;;;;;;6303417;28;20449;-66
2023/05/20 03:11:39;;;;;;;9.83;8.83;;;15.70;99.90;;;;;;6302506;28;20489;-66
2023/05/20 03:14:43;;;;;;;8.13;7.43;;;15.70;99.90;;;;;;6302556;28;20437;-66
2023/05/20 03:17:46;;;;;;;9.10;8.20;;;15.80;99.90;;;;;;6303154;28;20466;-66
2023/05/20 03:20:49;;;;;;;9.00;7.27;;;15.90;99.90;;;;;;6302698;28;20457;-66
2023/05/20 03:23:52;;;;;;;8.67;7.97;;;15.90;99.90;;;;;;6302567;28;20464;-66
2023/05/20 03:26:57;;;;;;;9.00;8.10;;;15.90;99.90;;;;;;6302571;28;20931;-66
2023/05/20 03:30:00;;;;;;;7.90;7.20;;;15.90;99.90;;;;;;6302350;28;20798;-67
2023/05/20 03:33:04;;;;;;;8.50;7.70;;;15.90;99.90;;;;;;6302627;28;20469;-67
2023/05/20 03:36:08;;;;;;;10.20;8.90;;;15.90;99.90;;;;;;6293765;28;20479;-66
2023/05/20 03:39:11;;;;;;;9.87;8.27;;;15.90;99.90;;;;;;6302210;28;20956;-66
2023/05/20 03:42:15;;;;;;;8.37;7.40;;;15.90;99.90;;;;;;6301733;28;20465;-66
2023/05/20 03:45:19;;;;;;;8.77;7.97;;;15.90;99.90;;;;;;6302261;28;20540;-66
2023/05/20 03:48:22;;;;;;;7.43;6.77;;;16.00;99.90;;;;;;6302299;28;20980;-66
2023/05/20 03:51:25;;;;;;;8.10;7.40;;;16.00;99.90;;;;;;6302115;28;21181;-66
2023/05/20 03:54:30;;;;;;;7.90;7.30;;;16.00;99.90;;;;;;6301228;28;20945;-66
2023/05/20 03:57:35;;;;;;;9.87;7.77;;;16.00;99.90;;;;;;6302343;28;20591;-66
2023/05/20 04:00:38;;;;;;;7.97;7.27;;;16.10;99.90;;;;;;6302026;28;20473;-66
2023/05/20 04:03:42;;;;;;;8.73;8.03;;;16.10;99.90;;;;;;6301724;28;20936;-66
2023/05/20 04:06:46;;;;;;;7.93;7.13;;;16.10;99.90;;;;;;6301597;28;20881;-65
2023/05/20 04:09:49;;;;;;;8.67;7.83;;;16.20;99.90;;;;;;6301447;28;20469;-66
2023/05/20 04:12:54;;;;;;;8.63;7.83;;;16.20;99.90;;;;;;6301386;28;20483;-66
2023/05/20 04:15:57;;;;;;;7.97;7.27;;;16.20;99.90;;;;;;6301303;28;21289;-66
2023/05/20 04:19:01;;;;;;;7.77;7.23;;;16.30;99.90;;;;;;6301260;28;20480;-66
2023/05/20 04:22:05;;;;;;;8.83;7.97;;;16.30;99.90;;;;;;6301063;28;20461;-66
2023/05/20 04:25:08;;;;;;;8.50;7.80;;;16.40;99.90;;;;;;6301075;28;20792;-66
2023/05/20 04:28:15;;;;;;;8.17;7.43;;;16.50;99.90;;;;;;6300934;28;20481;-67
2023/05/20 04:31:20;;;;;;;7.67;6.97;;;16.70;99.90;;;;;;6301016;28;20530;-66
2023/05/20 04:34:25;;;;;;;7.10;6.40;;;16.70;99.90;;;;;;6300848;28;21004;-67
2023/05/20 04:37:30;;;;;;;7.07;6.47;;;16.80;99.90;;;;;;6301168;28;20469;-67
2023/05/20 04:40:34;;;;;;;7.30;6.60;;;16.90;99.90;;;;;;6296412;28;20477;-67
2023/05/20 04:43:39;;;;;;;7.40;6.70;;;17.10;99.90;;;;;;6300838;28;20558;-66
2023/05/20 04:46:43;;;;;;;9.00;8.03;;;17.20;99.90;;;;;;6304002;28;20528;-67
2023/05/20 04:49:46;;;;;;;8.33;6.60;;;17.30;99.90;;;;;;6313464;28;20468;-67
2023/05/20 04:52:50;;;;;;;8.70;7.40;;;17.40;99.90;;;;;;6303811;28;20465;-67
2023/05/20 04:55:55;;;;;;;7.93;7.07;;;17.50;99.90;;;;;;6300523;28;20469;-67
2023/05/20 04:59:00;;;;;;;7.10;6.53;;;17.50;99.90;;;;;;6300496;28;20473;-67
2023/05/20 05:02:04;;;;;;;7.70;7.10;;;17.60;99.90;;;;;;6300529;28;20472;-67
2023/05/20 05:05:08;;;;;;;8.03;7.33;;;17.70;99.90;;;;;;6300187;28;20496;-67
2023/05/20 05:08:11;;;;;;;7.57;6.90;;;17.80;99.90;;;;;;6300095;28;20553;-67
2023/05/20 05:11:14;;;;;;;10.93;7.37;;;17.90;99.90;;;;;;6300263;28;20477;-66
2023/05/20 05:14:19;;;;;;;7.67;7.07;;;18.00;99.90;;;;;;6299552;28;20473;-66
2023/05/20 05:17:22;;;;;;;8.00;7.30;;;18.10;99.90;;;;;;6300110;28;20479;-66
2023/05/20 05:20:25;;;;;;;7.30;6.50;;;18.10;99.90;;;;;;6299667;28;21332;-66
2023/05/20 05:23:28;;;;;;;7.73;6.30;;;18.10;99.90;;;;;;6299833;28;20454;-66
2023/05/20 05:26:31;;;;;;;7.63;6.93;;;18.10;99.90;;;;;;6300119;28;20447;-66
2023/05/20 05:29:36;;;;;;;8.47;7.00;;;18.10;99.90;;;;;;6299905;28;20463;-65
2023/05/20 05:32:42;;;;;;;10.57;7.37;;;18.00;99.90;;;;;;6299747;28;20615;-65
2023/05/20 05:35:45;;;;;;;7.30;6.70;;;17.90;99.90;;;;;;6299668;28;20417;-65
2023/05/20 05:38:48;;;;;;;8.03;7.33;;;17.90;99.90;;;;;;6299848;28;20457;-66
2023/05/20 05:41:52;;;;;;;7.33;6.63;;;17.90;99.90;;;;;;6299393;28;20984;-66
2023/05/20 05:44:57;;;;;;;6.93;6.33;;;17.80;99.90;;;;;;6290329;28;21003;-66
2023/05/20 05:48:00;;;;;;;7.10;6.50;;;17.70;99.90;;;;;;6299704;28;20472;-66
2023/05/20 05:51:04;;;;;;;8.40;7.20;;;17.60;99.90;;;;;;6299214;28;20907;-66
2023/05/20 05:54:08;;;;;;;8.43;6.90;;;17.50;99.90;;;;;;6299284;28;20525;-66
2023/05/20 05:57:11;;;;;;;9.40;6.50;;;17.50;99.90;;;;;;6299515;28;20468;-66
2023/05/20 06:00:16;;;;;;;8.10;6.43;;;17.60;99.90;;;;;;6299107;28;20811;-66
2023/05/20 06:03:20;;;;;;;8.10;7.50;;;17.80;99.90;;;;;;6299776;28;20473;-66
2023/05/20 06:06:23;;;;;;;7.73;7.13;;;18.00;99.90;;;;;;6299612;28;20465;-66
2023/05/20 06:09:26;;;;;;;6.93;6.33;;;18.10;99.90;;;;;;6299320;28;20566;-66
2023/05/20 06:12:29;;;;;;;7.73;7.10;;;18.30;99.90;;;;;;6299697;28;20461;-66
2023/05/20 06:15:35;;;;;;;8.43;6.77;;;18.60;99.90;;;;;;6299410;28;20479;-66
2023/05/20 06:18:38;;;;;;;6.40;5.80;;;19.10;99.90;;;;;;6302252;28;20231;-67
2023/05/20 06:21:41;;;;;;;6.67;6.10;;;19.40;99.90;;;;;;6304480;28;20356;-66
2023/05/20 06:24:45;;;;;;;8.33;7.10;;;20.00;99.90;;;;;;6304474;28;20250;-66
2023/05/20 06:27:48;;;;;;;9.27;6.37;;;20.50;99.90;;;;;;6304001;28;20237;-66
2023/05/20 06:30:54;;;;;;;6.77;6.07;;;20.90;99.90;;;;;;6304423;28;20230;-66
2023/05/20 06:33:57;;;;;;;7.23;6.43;;;21.30;99.90;;;;;;6303704;28;20364;-66
2023/05/20 06:37:01;;;;;;;6.37;5.97;;;22.30;99.40;;;;;;6304979;28;20660;-66
2023/05/20 06:40:05;;;;;;;7.30;6.70;;;23.40;98.10;;;;;;6303722;28;20241;-66
2023/05/20 06:43:08;;;;;;;7.87;7.03;;;24.30;95.80;;;;;;6304072;28;20222;-66
2023/05/20 06:46:13;;;;;;;6.87;6.37;;;25.00;94.10;;;;;;6303654;28;20674;-66
2023/05/20 06:49:16;;;;;;;6.33;5.73;;;25.00;92.80;;;;;;6299384;28;20235;-65
2023/05/20 06:52:19;;;;;;;7.80;7.10;;;24.60;92.30;;;;;;6303365;28;20580;-65
2023/05/20 06:55:22;;;;;;;7.37;6.70;;;24.40;92.60;;;;;;6303624;28;20245;-65
2023/05/20 06:58:26;;;;;;;7.23;6.60;;;24.50;93.10;;;;;;6303195;28;20259;-65
2023/05/20 07:01:30;;;;;;;6.13;5.63;;;25.50;92.00;;;;;;6303455;28;20245;-65
2023/05/20 07:04:34;;;;;;;10.67;6.87;;;26.60;90.40;;;;;;6303243;28;20234;-65
2023/05/20 07:07:37;;;;;;;6.80;6.17;;;27.40;86.70;;;;;;6303191;28;20222;-65
2023/05/20 07:10:40;;;;;;;6.40;5.80;;;28.40;82.80;;;;;;6303014;28;20321;-65
2023/05/20 07:13:43;;;;;;;6.40;5.80;;;29.30;78.00;;;;;;6311975;28;20241;-65
2023/05/20 07:16:48;;;;;;;6.20;5.70;;;29.80;73.10;;;;;;6319259;28;20246;-65
2023/05/20 07:19:51;;;;;;;6.90;6.30;;;30.40;70.70;;;;;;6304027;28;20237;-66
2023/05/20 07:22:54;;;;;;;6.20;5.70;;;31.00;67.90;;;;;;6303045;28;20230;-67
2023/05/20 07:25:57;;;;;;;4.45;4.05;;;31.50;65.50;;;;;;6301878;28;20218;-70
2023/05/20 07:29:00;;;;;;;6.53;6.03;;;32.50;61.70;;;;;;6300377;28;20302;-68
2023/05/20 07:32:06;;;;;;;6.85;6.25;;;33.20;57.40;;;;;;6299720;28;20545;-68
2023/05/20 07:35:09;;;;;;;6.35;5.80;;;33.30;54.60;;;;;;6300983;28;20237;-68
2023/05/20 07:38:13;;;;;;;7.00;6.40;;;32.00;55.20;;;;;;6301682;28;20222;-69
2023/05/20 07:41:16;;;;;;;6.70;6.20;;;30.40;57.70;;;;;;6301959;28;20234;-68
2023/05/20 07:44:20;;;;;;;7.30;6.70;;;28.90;60.70;;;;;;6301245;28;20214;-69
2023/05/20 07:47:25;;;;;;;7.40;6.70;;;27.80;64.60;;;;;;6300392;28;20226;-68
2023/05/20 07:50:28;;;;;;;7.90;7.20;;;26.20;69.10;;;;;;6301515;28;20280;-69
2023/05/20 07:53:32;;;;;;;8.23;7.60;;;25.30;73.20;;;;;;6302110;28;20234;-69
2023/05/20 07:56:35;;;;;;;8.37;7.63;;;24.90;76.10;;;;;;6302243;28;20194;-68
2023/05/20 07:59:38;;;;;;;7.17;6.67;;;24.50;78.10;;;;;;6301604;28;20215;-69
2023/05/20 08:02:43;;;;;;;8.10;7.30;;;24.20;80.00;;;;;;6302118;28;20191;-68
2023/05/20 08:05:47;;;;;;;7.73;7.13;;;23.50;82.90;;;;;;6301812;28;20587;-68
2023/05/20 08:08:50;;;;;;;8.03;7.43;;;23.20;85.10;;;;;;6298110;28;20234;-69
2023/05/20 08:11:53;;;;;;;8.23;7.53;;;23.00;86.70;;;;;;6300375;28;20257;-69
2023/05/20 08:14:56;;;;;;;8.30;7.70;;;22.90;88.30;;;;;;6299638;28;20670;-68
2023/05/20 08:18:01;;;;;;;8.57;7.83;;;23.20;89.40;;;;;;6300717;28;20230;-68
2023/05/20 08:21:06;;;;;;;8.23;7.43;;;23.40;88.30;;;;;;6301173;28;20279;-68
2023/05/20 08:24:09;;;;;;;8.50;7.63;;;23.50;89.60;;;;;;6300964;28;20545;-68
2023/05/20 08:27:13;;;;;;;7.73;7.03;;;23.80;87.90;;;;;;6301534;28;20555;-68
2023/05/20 08:30:16;;;;;;;7.23;6.63;;;24.20;88.90;;;;;;6301058;28;20332;-69
2023/05/20 08:33:21;;;;;;;8.30;7.70;;;24.80;86.80;;;;;;6301327;28;20249;-68
2023/05/20 08:36:26;;;;;;;9.07;8.30;;;25.30;84.20;;;;;;6301162;28;20662;-69
2023/05/20 08:39:29;;;;;;;9.30;8.70;;;25.10;83.60;;;;;;6300876;28;20321;-68
2023/05/20 08:42:33;;;;;;;7.00;6.40;;;25.30;83.50;;;;;;6300737;28;20222;-69
2023/05/20 08:45:38;;;;;;;7.30;6.70;;;25.50;84.20;;;;;;6300421;28;20226;-69
2023/05/20 08:48:43;;;;;;;8.20;7.60;;;25.60;82.90;;;;;;6301026;28;20241;-69
2023/05/20 08:51:47;;;;;;;8.33;7.53;;;25.90;81.40;;;;;;6300266;28;20306;-69
2023/05/20 08:54:51;;;;;;;8.57;7.30;;;25.90;81.80;;;;;;6300201;28;20244;-69
2023/05/20 08:57:56;;;;;;;8.80;8.07;;;26.30;80.80;;;;;;6288660;28;20241;-69
2023/05/20 09:00:59;;;;;;;8.40;7.80;;;26.50;78.30;;;;;;6299351;28;20225;-69
2023/05/20 09:04:04;;;;;;;8.87;8.10;;;26.70;77.90;;;;;;6299618;28;20226;-69
2023/05/20 09:07:08;;;;;;;9.07;8.27;;;26.90;76.70;;;;;;6300046;28;20236;-69
2023/05/20 09:10:11;;;;;;;8.40;7.60;;;27.00;76.00;;;;;;6299494;28;20231;-69
2023/05/20 09:13:14;;;;;;;7.47;6.90;;;26.90;75.80;;;;;;6300132;28;20240;-69
2023/05/20 09:16:20;;;;;;;8.53;7.83;;;26.50;76.70;;;;;;6300183;28;20245;-69
2023/05/20 09:19:25;;;;;;;7.20;6.60;;;26.30;78.10;;;;;;6300082;28;20234;-69
2023/05/20 09:22:31;;;;;;;8.43;7.67;;;26.20;77.10;;;;;;6299874;28;20313;-69
2023/05/20 09:25:35;;;;;;;11.63;8.60;;;26.10;74.90;;;;;;6300426;28;20410;-69
2023/05/20 09:28:39;;;;;;;8.37;7.67;;;26.00;74.50;;;;;;6299954;28;20222;-68
2023/05/20 09:31:43;;;;;;;7.77;7.07;;;26.40;75.20;;;;;;6299823;28;20375;-69
2023/05/20 09:34:48;;;;;;;8.03;7.10;;;27.00;72.90;;;;;;6300024;28;20230;-68
2023/05/20 09:37:53;;;;;;;8.97;8.13;;;27.20;69.40;;;;;;6299586;28;20238;-68
2023/05/20 09:41:00;;;;;;;8.50;7.90;;;26.90;70.30;;;;;;6299659;28;20284;-68
2023/05/20 09:44:05;;;;;;;9.10;8.23;;;26.70;70.00;;;;;;6299942;28;20240;-68
2023/05/20 09:47:09;;;;;;;7.90;7.23;;;26.60;70.00;;;;;;6299841;28;20544;-68
2023/05/20 09:50:15;;;;;;;7.77;7.07;;;26.40;70.60;;;;;;6299155;28;20241;-69
2023/05/20 09:53:19;;;;;;;7.90;7.20;;;26.50;70.70;;;;;;6299002;28;20230;-67
2023/05/20 09:56:25;;;;;;;8.97;8.17;;;26.30;67.60;;;;;;6299182;28;20695;-68
2023/05/20 09:59:31;;;;;;;9.00;8.10;;;25.90;67.60;;;;;;6299509;28;20234;-68
2023/05/20 10:02:35;;;;;;;8.00;7.40;;;25.70;68.80;;;;;;6299340;28;20218;-68
2023/05/20 10:05:45;;;;;;;7.23;6.63;;;25.60;69.30;;;;;;6300285;28;20198;-68
2023/05/20 10:09:05;;;;;;;9.27;8.37;;;25.60;70.60;;;;;;6307037;28;20190;-67
2023/05/20 10:12:19;;;;;;;8.20;7.40;;;25.90;68.50;;;;;;6303736;28;20684;-67
2023/05/20 10:15:28;;;;;;;8.03;7.43;;;26.00;68.90;;;;;;6299685;28;20230;-68
2023/05/20 10:18:45;;;;;;;7.60;6.90;;;26.60;68.80;;;;;;6299935;28;20371;-68
2023/05/20 10:21:58;;;;;;;7.47;6.87;;;27.40;67.70;;;;;;6299041;28;20547;-68
2023/05/20 10:25:06;;;;;;;7.60;7.00;;;27.80;64.90;;;;;;6299352;28;20237;-68
2023/05/20 10:28:10;;;;;;;8.10;7.50;;;28.10;62.50;;;;;;6299126;28;20228;-68
2023/05/20 10:31:18;;;;;;;8.03;7.43;;;27.90;60.30;;;;;;6298911;28;20584;-68
2023/05/20 10:34:22;;;;;;;9.10;8.27;;;27.60;58.70;;;;;;6298824;28;20226;-68
2023/05/20 10:37:28;;;;;;;8.17;7.37;;;27.20;60.00;;;;;;6299159;28;20319;-68
2023/05/20 10:40:31;;;;;;;8.07;7.37;;;27.00;61.00;;;;;;6298780;28;20234;-68
2023/05/20 10:43:35;;;;;;;8.33;7.60;;;26.90;60.00;;;;;;6299321;28;20226;-68
2023/05/20 10:46:39;;;;;;;7.23;6.63;;;27.00;62.00;;;;;;6299321;28;20245;-68
2023/05/20 10:50:04;;;;;;;8.60;7.80;;;27.20;61.10;;;;;;6298868;28;20234;-69
2023/05/20 10:53:13;;;;;;;8.70;7.83;;;26.60;60.90;;;;;;6298754;28;20356;-69
2023/05/20 10:56:35;;;;;;;11.57;10.40;;;26.50;61.90;;;;;;6296794;28;20211;-69
2023/05/20 10:59:38;;;;;;;10.43;9.43;;;26.80;61.70;;;;;;6298529;28;20214;-67
2023/05/20 11:02:42;;;;;;;11.70;10.60;;;27.20;61.10;;;;;;6299072;28;20212;-67
2023/05/20 11:05:46;;;;;;;8.90;8.10;;;27.70;61.90;;;;;;6301759;28;20230;-69
2023/05/20 11:08:50;;;;;;;9.00;8.20;;;27.60;60.00;;;;;;6303065;28;20627;-67
2023/05/20 11:11:54;;;;;;;8.67;7.97;;;27.40;60.30;;;;;;6303606;28;20538;-67
2023/05/20 11:14:58;;;;;;;9.10;8.40;;;27.60;59.90;;;;;;6302858;28;20237;-67
2023/05/20 11:18:02;;;;;;;9.70;8.07;;;27.90;58.80;;;;;;6303322;28;20718;-67
2023/05/20 11:21:05;;;;;;;9.10;8.43;;;27.50;59.10;;;;;;6303516;28;20231;-67
2023/05/20 11:24:10;;;;;;;8.20;7.60;;;27.50;59.00;;;;;;6302992;28;20377;-67
2023/05/20 11:27:13;;;;;;;8.43;7.63;;;27.40;59.50;;;;;;6302933;28;20230;-68
2023/05/20 11:30:19;;;;;;;8.80;7.87;;;27.50;60.00;;;;;;6302507;28;20230;-66
2023/05/20 11:33:26;;;;;;;8.57;7.97;;;27.60;59.60;;;;;;6303280;28;20539;-67
2023/05/20 11:36:29;;;;;;;8.90;8.10;;;27.30;59.70;;;;;;6303834;28;20733;-66
2023/05/20 11:39:34;;;;;;;9.63;8.73;;;27.10;59.60;;;;;;6305636;28;20576;-66
2023/05/20 11:42:37;;;;;;;8.40;7.60;;;27.00;60.70;;;;;;6303818;28;20356;-67
2023/05/20 11:45:41;;;;;;;9.10;8.40;;;26.90;61.20;;;;;;6304007;28;20292;-70
2023/05/20 11:48:51;;;;;;;10.23;8.90;;;27.00;63.00;;;;;;6302670;28;20226;-67
2023/05/20 11:51:56;;;;;;;9.80;8.67;;;27.10;60.90;;;;;;6302786;28;20237;-67
2023/05/20 11:55:00;;;;;;;9.63;8.63;;;27.10;58.50;;;;;;6301807;28;20371;-68
2023/05/20 11:58:04;;;;;;;8.93;8.33;;;27.20;59.30;;;;;;6301644;28;20543;-67
2023/05/20 12:01:07;;;;;;;9.87;8.87;;;27.20;58.70;;;;;;6302081;28;20283;-69
2023/05/20 12:04:24;;;;;;;9.43;8.53;;;27.10;57.10;;;;;;6302344;28;20218;-71
2023/05/20 12:07:27;;;;;;;10.13;9.23;;;27.00;58.40;;;;;;6301095;28;20264;-68
2023/05/20 12:10:31;;;;;;;9.27;8.43;;;26.90;59.20;;;;;;6291928;28;20234;-69
2023/05/20 12:13:35;;;;;;;9.23;8.43;;;26.60;58.40;;;;;;6300957;28;20295;-68
2023/05/20 12:16:38;;;;;;;9.90;9.00;;;26.20;59.40;;;;;;6300695;28;20268;-71
2023/05/20 12:19:42;;;;;;;8.70;7.90;;;25.80;60.70;;;;;;6301279;28;20666;-71
2023/05/20 12:22:48;;;;;;;9.67;8.87;;;25.80;61.50;;;;;;6301589;28;20254;-72
2023/05/20 12:25:52;;;;;;;8.90;8.10;;;26.10;61.60;;;;;;6301412;28;20234;-71
2023/05/20 12:28:56;;;;;;;9.67;8.97;;;26.20;60.00;;;;;;6301180;28;20233;-70
2023/05/20 12:32:00;;;;;;;8.50;7.60;;;26.30;59.90;;;;;;6301195;28;20245;-70
2023/05/20 12:35:03;;;;;;;8.80;8.10;;;26.40;59.80;;;;;;6300946;28;20301;-70
2023/05/20 12:38:07;;;;;;;10.23;9.43;;;26.40;60.20;;;;;;6301163;28;20237;-71
2023/05/20 12:41:11;;;;;;;9.10;8.40;;;25.80;61.10;;;;;;6300546;28;20241;-70
2023/05/20 12:44:14;;;;;;;9.10;8.40;;;25.90;60.40;;;;;;6301351;28;20368;-70
2023/05/20 12:47:18;;;;;;;9.27;8.47;;;25.80;60.30;;;;;;6300667;28;20230;-71
2023/05/20 12:50:21;;;;;;;8.17;7.47;;;25.80;59.80;;;;;;6301353;28;20229;-71
2023/05/20 12:53:24;;;;;;;8.60;7.90;;;25.70;61.40;;;;;;6301320;28;20234;-71
2023/05/20 12:56:29;;;;;;;8.93;8.23;;;25.90;62.40;;;;;;6303228;28;20248;-73
2023/05/20 12:59:32;;;;;;;11.13;10.07;;;26.20;62.70;;;;;;6302133;28;20564;-71
2023/05/20 13:02:36;;;;;;;9.80;8.80;;;26.10;63.10;;;;;;6300715;28;20210;-72
2023/05/20 13:05:41;;;;;;;8.43;7.73;;;26.20;60.50;;;;;;6300398;28;20187;-68
2023/05/20 13:08:45;;;;;;;9.23;8.43;;;26.30;61.30;;;;;;6300158;28;20217;-65
2023/05/20 13:11:49;;;;;;;10.47;8.93;;;26.40;61.10;;;;;;6296074;28;20208;-66
2023/05/20 13:14:53;;;;;;;9.10;8.40;;;26.50;58.90;;;;;;6299578;28;20238;-66
2023/05/20 13:18:00;;;;;;;13.60;12.50;;;26.10;58.40;;;;;;6299690;28;20301;-66
2023/05/20 13:21:03;;;;;;;8.97;8.27;;;26.10;60.00;;;;;;6299144;28;20263;-68
2023/05/20 13:24:07;;;;;;;8.93;8.23;;;26.10;61.20;;;;;;6299827;28;20566;-69
2023/05/20 13:27:12;;;;;;;8.87;8.17;;;26.00;61.10;;;;;;6299419;28;20226;-69
2023/05/20 13:30:15;;;;;;;9.50;8.60;;;26.00;62.30;;;;;;6299787;28;20282;-69
2023/05/20 13:33:18;;;;;;;9.00;8.30;;;25.80;61.40;;;;;;6299622;28;20383;-68
2023/05/20 13:36:22;;;;;;;8.50;7.80;;;25.90;60.90;;;;;;6299744;28;20230;-68
2023/05/20 13:39:25;;;;;;;10.97;8.77;;;25.80;60.80;;;;;;6299852;28;20226;-67
2023/05/20 13:42:30;;;;;;;9.03;8.20;;;25.40;61.70;;;;;;6299718;28;20253;-67
2023/05/20 13:45:33;;;;;;;8.57;7.77;;;25.10;62.60;;;;;;6299569;28;20226;-68
2023/05/20 13:48:37;;;;;;;8.93;8.13;;;24.90;63.60;;;;;;6299808;28;20236;-67
2023/05/20 13:51:40;;;;;;;9.83;8.90;;;24.90;63.20;;;;;;6306417;22;20222;-69
2023/05/20 13:54:45;;;;;;;9.33;8.50;;;24.80;64.30;;;;;;6299671;28;20226;-66
2023/05/20 13:57:52;;;;;;;9.50;8.60;;;24.80;64.90;;;;;;6301045;28;20230;-67
2023/05/20 14:00:55;;;;;;;9.40;8.60;;;24.90;65.90;;;;;;6300490;28;20343;-66
2023/05/20 14:03:59;;;;;;;10.43;9.43;;;25.00;66.60;;;;;;6293328;28;20667;-67
2023/05/20 14:07:02;;;;;;;8.90;8.20;;;25.20;66.90;;;;;;6312105;28;20233;-67
2023/05/20 14:10:07;;;;;;;9.87;8.93;;;25.40;66.70;;;;;;6313266;28;20234;-67
2023/05/20 14:13:12;;;;;;;10.07;9.17;;;25.70;66.50;;;;;;6321804;28;20255;-70
2023/05/20 14:16:15;;;;;;;9.37;8.60;;;26.00;65.90;;;;;;6312259;28;20236;-68
2023/05/20 14:19:19;;;;;;;8.80;8.10;;;26.30;66.00;;;;;;6311119;28;20222;-67
2023/05/20 14:22:22;;;;;;;9.20;8.40;;;26.50;64.60;;;;;;6303944;28;20217;-67
2023/05/20 14:25:26;;;;;;;9.53;8.77;;;26.40;63.30;;;;;;6299163;28;20242;-67
2023/05/20 14:28:31;;;;;;;9.40;8.60;;;26.50;65.50;;;;;;6299048;28;20363;-67
2023/05/20 14:31:34;;;;;;;8.83;8.13;;;26.70;63.60;;;;;;6299116;28;20238;-67
2023/05/20 14:34:37;;;;;;;8.67;7.87;;;26.70;63.10;;;;;;6298556;28;20268;-67
2023/05/20 14:37:40;;;;;;;9.03;8.23;;;26.50;63.30;;;;;;6298969;28;20244;-67
2023/05/20 14:40:44;;;;;;;8.30;7.60;;;26.50;64.30;;;;;;6303849;28;20234;-67
2023/05/20 14:43:48;;;;;;;8.90;8.00;;;26.30;63.70;;;;;;6303845;28;20226;-68
2023/05/20 14:46:51;;;;;;;9.63;8.53;;;26.10;64.60;;;;;;6303473;28;20240;-67
2023/05/20 14:49:55;;;;;;;8.00;7.40;;;25.90;65.10;;;;;;6304588;28;20242;-68
2023/05/20 14:52:59;;;;;;;9.77;8.87;;;25.50;65.30;;;;;;6304678;28;20306;-67
2023/05/20 14:56:02;;;;;;;9.37;8.33;;;25.10;66.50;;;;;;6303397;28;20731;-67
2023/05/20 14:59:07;;;;;;;8.17;7.40;;;24.80;67.40;;;;;;6313971;28;20436;-67
2023/05/20 15:02:10;;;;;;;9.13;8.40;;;24.80;68.10;;;;;;6311861;28;20241;-67
2023/05/20 15:05:17;;;;;;;9.80;9.00;;;24.90;68.60;;;;;;6308282;28;20218;-67
2023/05/20 15:08:20;;;;;;;9.33;8.43;;;25.00;68.70;;;;;;6325704;28;20226;-68
2023/05/20 15:11:24;;;;;;;9.23;8.33;;;24.80;68.00;;;;;;6326447;28;20267;-68
2023/05/20 15:14:28;;;;;;;9.23;8.43;;;24.80;69.30;;;;;;6316140;28;20299;-68
2023/05/20 15:17:31;;;;;;;9.20;8.50;;;24.90;70.00;;;;;;6328539;28;20228;-68
2023/05/20 15:20:35;;;;;;;10.00;8.80;;;25.00;69.90;;;;;;6328173;28;20684;-65
2023/05/20 15:23:38;;;;;;;9.40;8.50;;;25.10;68.80;;;;;;6327291;28;20237;-66
2023/05/20 15:26:41;;;;;;;10.30;8.90;;;25.10;69.50;;;;;;6326975;28;20622;-66
2023/05/20 15:29:47;;;;;;;9.90;9.10;;;25.20;69.90;;;;;;6302845;28;20219;-66
2023/05/20 15:32:50;;;;;;;11.27;9.30;;;25.20;68.90;;;;;;6302300;28;20301;-64
2023/05/20 15:35:53;;;;;;;10.20;9.40;;;25.00;68.10;;;;;;6303347;28;20316;-65
2023/05/20 15:38:57;;;;;;;9.43;8.47;;;25.00;69.40;;;;;;6304053;28;20238;-65
2023/05/20 15:42:01;;;;;;;10.93;9.70;;;25.00;68.90;;;;;;6304757;28;20235;-67
2023/05/20 15:45:07;;;;;;;9.90;9.00;;;24.90;69.10;;;;;;6302216;28;20234;-64
2023/05/20 15:48:10;;;;;;;9.90;8.97;;;24.90;69.80;;;;;;6302745;28;20304;-65
2023/05/20 15:51:14;;;;;;;9.30;8.40;;;24.90;71.00;;;;;;6300828;28;20234;-66
2023/05/20 15:54:18;;;;;;;10.00;9.10;;;25.00;72.60;;;;;;6317384;28;20222;-69
2023/05/20 15:57:22;;;;;;;9.80;9.00;;;25.00;69.40;;;;;;6305053;28;20669;-70